Time;durP1;ratioP1;P1;durP2;ratioP2;P2;SDS_P1;SDS_P2;PMS_P1;PMS_P2;Temp;Humidity;BMP_temperature;BMP_pressure;BME280_temperature;BME280_humidity;BME280_pressure;Samples;Min_cycle;Max_cycle;Signal;HPM_P1;HPM_P2
2022/03/14 00:03:59;;;;;;;47.90;25.53;;;3.30;99.90;;;;;;10358652;28;20273;-81
2022/03/14 00:09:22;;;;;;;42.13;23.43;;;3.20;99.90;;;;;;10345296;28;20277;-81
2022/03/14 00:14:46;;;;;;;46.63;24.73;;;3.20;99.90;;;;;;10358266;28;20207;-79
2022/03/14 00:20:11;;;;;;;44.73;23.57;;;3.10;99.90;;;;;;10331114;28;20205;-80
2022/03/14 00:25:39;;;;;;;45.87;23.13;;;3.10;99.90;;;;;;10305156;28;20230;-80
2022/03/14 00:31:01;;;;;;;46.70;23.20;;;3.10;99.90;;;;;;10303632;28;20284;-80
2022/03/14 00:36:27;;;;;;;43.00;23.57;;;3.00;99.90;;;;;;10290436;28;20535;-80
2022/03/14 00:41:50;;;;;;;41.97;21.07;;;3.00;99.90;;;;;;10336441;28;20242;-80
2022/03/14 00:47:12;;;;;;;42.23;23.53;;;3.00;99.90;;;;;;10383557;28;20194;-80
2022/03/14 00:52:34;;;;;;;44.43;22.53;;;2.90;99.90;;;;;;10357752;28;20207;-79
2022/03/14 00:57:56;;;;;;;38.57;21.57;;;2.90;99.90;;;;;;10309262;28;20187;-79
2022/03/14 01:03:18;;;;;;;38.03;21.80;;;2.80;99.90;;;;;;10315936;28;20233;-79
2022/03/14 01:08:41;;;;;;;36.67;20.73;;;2.70;99.90;;;;;;10302686;28;20198;-79
2022/03/14 01:14:03;;;;;;;47.87;22.63;;;2.60;99.90;;;;;;10302328;28;20226;-79
2022/03/14 01:19:26;;;;;;;44.03;22.80;;;2.60;99.90;;;;;;10310744;28;20194;-79
2022/03/14 01:24:48;;;;;;;40.93;21.53;;;2.50;99.90;;;;;;10341771;28;20232;-79
2022/03/14 01:30:11;;;;;;;41.73;23.00;;;2.60;99.90;;;;;;10342044;28;20431;-79
2022/03/14 01:35:36;;;;;;;38.00;21.70;;;2.50;99.90;;;;;;10355362;28;20332;-79
2022/03/14 01:40:59;;;;;;;44.03;22.93;;;2.40;99.90;;;;;;10346246;28;20527;-79
2022/03/14 01:46:22;;;;;;;39.07;23.17;;;2.30;99.90;;;;;;10395461;28;20263;-79
2022/03/14 01:51:44;;;;;;;41.63;23.83;;;2.30;99.90;;;;;;10350119;28;20385;-79
2022/03/14 01:57:08;;;;;;;42.13;23.80;;;2.30;99.90;;;;;;10340159;28;20242;-79
2022/03/14 02:02:30;;;;;;;51.07;26.97;;;2.30;99.90;;;;;;10340351;28;20240;-79
2022/03/14 02:07:52;;;;;;;55.67;29.10;;;2.20;99.90;;;;;;10340717;28;20221;-80
2022/03/14 02:13:14;;;;;;;51.30;27.50;;;2.20;99.90;;;;;;10343024;28;20221;-79
2022/03/14 02:18:36;;;;;;;46.37;27.03;;;2.20;99.90;;;;;;10339717;28;20203;-79
2022/03/14 02:24:00;;;;;;;47.90;24.80;;;2.10;99.90;;;;;;10339980;28;20221;-79
2022/03/14 02:29:24;;;;;;;43.93;24.20;;;2.10;99.90;;;;;;10353573;28;20212;-80
2022/03/14 02:34:45;;;;;;;37.77;21.87;;;2.00;99.90;;;;;;10340268;28;20209;-80
2022/03/14 02:40:08;;;;;;;37.13;21.17;;;2.00;99.90;;;;;;10339633;28;20227;-81
2022/03/14 02:45:30;;;;;;;37.73;21.20;;;1.90;99.90;;;;;;10299603;28;20220;-81
2022/03/14 02:50:55;;;;;;;40.57;21.83;;;1.90;99.90;;;;;;10338868;28;20200;-81
2022/03/14 02:56:20;;;;;;;45.17;23.57;;;1.90;99.90;;;;;;10339683;28;20530;-80
2022/03/14 03:01:41;;;;;;;35.93;21.37;;;1.80;99.90;;;;;;10313211;28;20221;-81
2022/03/14 03:07:03;;;;;;;37.90;22.27;;;1.80;99.90;;;;;;10299227;28;20470;-78
2022/03/14 03:12:30;;;;;;;43.83;22.63;;;1.70;99.90;;;;;;10319165;28;20516;-80
2022/03/14 03:17:52;;;;;;;42.80;23.00;;;1.70;99.90;;;;;;10320758;28;20208;-81
2022/03/14 03:23:14;;;;;;;41.93;23.33;;;1.60;99.90;;;;;;10361480;28;20235;-80
2022/03/14 03:28:36;;;;;;;36.60;21.23;;;1.60;99.90;;;;;;10345934;28;20376;-80
2022/03/14 03:33:59;;;;;;;39.83;22.00;;;1.60;99.90;;;;;;10346681;28;20206;-78
2022/03/14 03:39:20;;;;;;;39.07;22.30;;;1.50;99.90;;;;;;10345767;28;20262;-79
2022/03/14 03:44:42;;;;;;;39.83;22.17;;;1.50;99.90;;;;;;10358793;28;20246;-79
2022/03/14 03:50:05;;;;;;;40.73;22.20;;;1.40;99.90;;;;;;10325368;28;20196;-79
2022/03/14 03:55:27;;;;;;;41.00;22.73;;;1.40;99.90;;;;;;10319808;28;20201;-79
2022/03/14 04:00:51;;;;;;;37.53;22.57;;;1.30;99.90;;;;;;10318926;28;20219;-78
2022/03/14 04:06:18;;;;;;;43.00;22.80;;;1.30;99.90;;;;;;10305294;28;20304;-79
2022/03/14 04:11:41;;;;;;;41.47;23.23;;;1.20;99.90;;;;;;10318268;28;20202;-80
2022/03/14 04:17:04;;;;;;;47.93;26.03;;;1.20;99.90;;;;;;10317179;28;20568;-80
2022/03/14 04:22:31;;;;;;;45.37;23.97;;;;;;;;;;10343482;28;20270;-80
2022/03/14 04:27:53;;;;;;;39.00;21.93;;;1.10;99.90;;;;;;10355999;28;20284;-80
2022/03/14 04:33:15;;;;;;;49.33;25.43;;;1.10;99.90;;;;;;10344295;28;20198;-80
2022/03/14 04:38:38;;;;;;;55.27;27.53;;;1.10;99.90;;;;;;10344101;28;20207;-80
2022/03/14 04:44:01;;;;;;;59.37;28.17;;;1.10;99.90;;;;;;10318636;28;20245;-80
2022/03/14 04:49:23;;;;;;;43.63;25.50;;;1.10;99.90;;;;;;10333138;28;20188;-81
2022/03/14 04:54:45;;;;;;;39.60;23.13;;;1.00;99.90;;;;;;10356799;28;20199;-80
2022/03/14 05:00:08;;;;;;;52.93;29.90;;;1.10;99.90;;;;;;10357129;28;20250;-81
2022/03/14 05:05:31;;;;;;;49.07;28.20;;;1.00;99.90;;;;;;10342768;28;20306;-80
2022/03/14 05:10:54;;;;;;;47.30;26.87;;;0.90;99.90;;;;;;10356426;28;20217;-80
2022/03/14 05:16:16;;;;;;;46.67;25.20;;;0.90;99.90;;;;;;10355879;28;20513;-80
2022/03/14 05:21:39;;;;;;;62.87;29.27;;;0.90;99.90;;;;;;10320224;28;20197;-80
2022/03/14 05:27:01;;;;;;;60.93;30.53;;;0.90;99.90;;;;;;10336360;28;20231;-80
2022/03/14 05:32:24;;;;;;;60.70;31.03;;;0.90;99.90;;;;;;10355441;28;20210;-80
2022/03/14 05:37:47;;;;;;;74.30;35.47;;;1.00;99.90;;;;;;10341795;28;20238;-80
2022/03/14 05:43:10;;;;;;;69.00;31.73;;;1.00;99.90;;;;;;10363877;28;20302;-79
2022/03/14 05:48:35;;;;;;;55.57;28.57;;;0.90;99.90;;;;;;10354112;28;20231;-80
2022/03/14 05:53:58;;;;;;;66.90;32.67;;;1.00;99.90;;;;;;10340823;28;20226;-80
2022/03/14 05:59:21;;;;;;;82.47;35.10;;;1.00;99.90;;;;;;10340852;28;20219;-82
2022/03/14 06:04:42;;;;;;;81.90;36.90;;;1.10;99.90;;;;;;10340462;28;20232;-81
2022/03/14 06:10:05;;;;;;;71.83;34.63;;;1.10;99.90;;;;;;10354114;28;20234;-80
2022/03/14 06:15:27;;;;;;;65.83;32.20;;;1.20;99.90;;;;;;10305645;28;20483;-80
2022/03/14 06:20:50;;;;;;;51.17;28.03;;;1.20;99.90;;;;;;10300220;28;20197;-80
2022/03/14 06:26:13;;;;;;;53.03;28.43;;;1.20;99.90;;;;;;10314206;28;20267;-81
2022/03/14 06:31:37;;;;;;;57.10;30.73;;;1.30;99.90;;;;;;10340580;28;20199;-81
2022/03/14 06:37:00;;;;;;;52.57;28.47;;;1.40;99.90;;;;;;10339732;28;20193;-80
2022/03/14 06:42:22;;;;;;;55.57;28.70;;;1.50;99.90;;;;;;10354413;28;20572;-81
2022/03/14 06:47:44;;;;;;;57.50;30.97;;;1.70;99.90;;;;;;10306943;28;20208;-80
2022/03/14 06:53:07;;;;;;;54.03;26.80;;;2.00;99.90;;;;;;10307451;28;20235;-81
2022/03/14 06:58:29;;;;;;;43.17;24.70;;;2.20;99.90;;;;;;10320799;28;20215;-80
2022/03/14 07:03:54;;;;;;;46.20;26.73;;;3.00;99.90;;;;;;10321591;28;20241;-78
2022/03/14 07:09:16;;;;;;;38.17;23.33;;;4.50;99.90;;;;;;10306866;28;20209;-80
2022/03/14 07:14:38;;;;;;;34.30;20.23;;;6.30;99.90;;;;;;10332845;28;20196;-79
2022/03/14 07:20:01;;;;;;;32.67;20.70;;;7.00;97.50;;;;;;10361665;28;20193;-79
2022/03/14 07:25:27;;;;;;;33.10;20.85;;;7.70;93.10;;;;;;10327234;28;20233;-79
2022/03/14 07:30:49;;;;;;;35.13;19.75;;;8.30;90.00;;;;;;10319575;28;20458;-79
2022/03/14 07:36:11;;;;;;;26.88;17.92;;;9.00;83.70;;;;;;10319329;28;20216;-79
2022/03/14 07:41:34;;;;;;;33.78;20.00;;;9.40;70.20;;;;;;10332848;28;20300;-80
2022/03/14 07:46:56;;;;;;;29.48;20.35;;;10.00;62.60;;;;;;10359103;28;20228;-79
2022/03/14 07:52:19;;;;;;;34.45;19.48;;;11.10;50.50;;;;;;10360133;28;20510;-80
2022/03/14 07:57:42;;;;;;;30.75;18.98;;;11.10;46.90;;;;;;10357666;28;20208;-80
2022/03/14 08:03:05;;;;;;;31.00;19.02;;;11.50;44.90;;;;;;10316754;28;20245;-78
2022/03/14 08:08:28;;;;;;;28.50;19.38;;;12.20;41.80;;;;;;10359485;28;20280;-79
2022/03/14 08:13:50;;;;;;;36.25;17.75;;;12.90;37.20;;;;;;10347076;28;20429;-79
2022/03/14 08:19:13;;;;;;;26.98;17.83;;;12.80;36.90;;;;;;10350901;28;20196;-80
2022/03/14 08:24:36;;;;;;;30.20;18.92;;;13.10;34.80;;;;;;10387019;28;20232;-78
2022/03/14 08:29:58;;;;;;;32.83;19.23;;;13.20;33.40;;;;;;10392160;28;20416;-82
2022/03/14 08:35:21;;;;;;;29.45;17.85;;;12.80;33.20;;;;;;10378607;28;20205;-81
2022/03/14 08:40:44;;;;;;;30.85;19.48;;;13.50;32.80;;;;;;10360534;28;20245;-80
2022/03/14 08:46:06;;;;;;;31.58;19.70;;;13.50;31.20;;;;;;10351764;28;20244;-81
2022/03/14 08:51:28;;;;;;;33.60;20.83;;;13.50;30.70;;;;;;10365357;28;20190;-80
2022/03/14 08:56:52;;;;;;;39.22;21.92;;;13.30;32.00;;;;;;10337397;28;20198;-79
2022/03/14 09:02:14;;;;;;;31.17;18.85;;;13.80;30.20;;;;;;10351295;28;20197;-80
2022/03/14 09:07:39;;;;;;;29.70;20.48;;;13.90;29.80;;;;;;10336674;28;20512;-79
2022/03/14 09:13:02;;;;;;;36.35;19.95;;;14.00;29.30;;;;;;10333070;28;20427;-80
2022/03/14 09:18:30;;;;;;;31.27;20.20;;;14.10;28.20;;;;;;10337065;28;20371;-80
2022/03/14 09:23:52;;;;;;;35.38;20.60;;;13.80;29.40;;;;;;10364700;28;20230;-80
2022/03/14 09:29:15;;;;;;;39.45;19.85;;;14.00;28.40;;;;;;10337090;28;20198;-81
2022/03/14 09:34:38;;;;;;;31.92;18.23;;;13.80;28.40;;;;;;10336194;28;20213;-81
2022/03/14 09:40:00;;;;;;;33.65;18.17;;;14.40;28.00;;;;;;10329105;28;20241;-81
2022/03/14 09:45:22;;;;;;;31.75;18.45;;;14.90;27.20;;;;;;10310213;28;20234;-82
2022/03/14 09:50:45;;;;;;;28.02;19.30;;;15.10;26.60;;;;;;10323493;28;20222;-82
2022/03/14 09:56:09;;;;;;;30.77;19.33;;;15.10;25.40;;;;;;10279728;28;20297;-81
2022/03/14 10:01:31;;;;;;;41.10;18.05;;;14.40;26.90;;;;;;10309042;28;20389;-81
2022/03/14 10:06:54;;;;;;;24.55;17.65;;;15.70;25.30;;;;;;10347058;28;20237;-84
2022/03/14 10:12:17;;;;;;;29.10;19.45;;;15.60;24.90;;;;;;10309325;28;20202;-80
2022/03/14 10:17:39;;;;;;;26.48;17.48;;;15.70;24.50;;;;;;10293126;28;20285;-79
2022/03/14 10:23:01;;;;;;;25.83;16.63;;;15.90;23.70;;;;;;10295199;28;20210;-85
2022/03/14 10:28:27;;;;;;;27.45;18.00;;;16.00;24.10;;;;;;10309586;28;20290;-81
2022/03/14 10:33:52;;;;;;;31.63;18.73;;;16.00;23.70;;;;;;10309138;28;20257;-84
2022/03/14 10:39:16;;;;;;;25.98;17.52;;;17.00;23.10;;;;;;10307742;28;20289;-86
2022/03/14 10:44:41;;;;;;;34.78;18.05;;;17.50;22.20;;;;;;10330165;28;20889;-81
2022/03/14 10:50:03;;;;;;;28.38;17.15;;;17.60;21.40;;;;;;10348420;28;20206;-80
2022/03/14 10:55:34;;;;;;;34.60;21.10;;;17.70;21.20;;;;;;10334007;28;20209;-80
2022/03/14 11:01:04;;;;;;;36.28;20.23;;;17.70;20.70;;;;;;10347417;28;20202;-81
2022/03/14 11:06:27;;;;;;;34.17;21.23;;;18.20;20.40;;;;;;10331891;28;20253;-83
2022/03/14 11:12:08;;;;;;;27.30;18.77;;;17.80;19.80;;;;;;10310278;28;20205;-80
2022/03/14 11:17:34;;;;;;;32.30;20.90;;;17.80;20.20;;;;;;10293947;28;20253;-81
2022/03/14 11:23:05;;;;;;;31.13;18.42;;;17.80;19.80;;;;;;10307232;28;20401;-80
2022/03/14 11:28:36;;;;;;;29.50;18.15;;;17.90;19.80;;;;;;10294506;28;20493;-82
2022/03/14 11:33:59;;;;;;;25.77;17.98;;;17.90;19.40;;;;;;10300419;28;20210;-82
2022/03/14 11:39:23;;;;;;;28.60;18.25;;;17.80;19.00;;;;;;10331444;28;20206;-83
2022/03/14 11:44:47;;;;;;;31.20;18.75;;;17.60;19.70;;;;;;10340927;28;20256;-81
2022/03/14 11:50:09;;;;;;;34.00;19.85;;;17.90;19.10;;;;;;10341208;28;20686;-81
2022/03/14 11:55:31;;;;;;;29.42;20.23;;;18.80;19.00;;;;;;10337924;28;20318;-80
2022/03/14 12:00:55;;;;;;;35.05;20.80;;;18.50;18.20;;;;;;10351233;28;20190;-81
2022/03/14 12:06:37;;;;;;;34.05;22.27;;;18.90;18.00;;;;;;10334987;28;20242;-81
2022/03/14 12:12:19;;;;;;;35.65;20.80;;;19.10;17.40;;;;;;10313225;28;20257;-86
2022/03/14 12:17:45;;;;;;;26.58;18.55;;;19.00;17.00;;;;;;10315383;28;20206;-81
2022/03/14 12:23:31;;;;;;;29.33;18.40;;;18.90;17.00;;;;;;10299429;28;20325;-81
2022/03/14 12:28:56;;;;;;;32.08;19.48;;;18.50;16.70;;;;;;10300369;28;20568;-80
2022/03/14 12:34:29;;;;;;;31.13;20.50;;;18.80;16.90;;;;;;10322408;28;20225;-81
2022/03/14 12:39:52;;;;;;;28.20;17.63;;;18.30;17.50;;;;;;10333251;28;20221;-81
2022/03/14 12:45:17;;;;;;;35.00;20.08;;;18.60;16.90;;;;;;10327514;28;20230;-83
2022/03/14 12:50:50;;;;;;;43.28;27.92;;;18.40;17.20;;;;;;10298899;28;20193;-82
2022/03/14 12:56:17;;;;;;;34.28;20.80;;;19.20;16.90;;;;;;10298056;28;20210;-80
2022/03/14 13:01:42;;;;;;;36.40;20.45;;;19.10;16.20;;;;;;10284382;28;20213;-80
2022/03/14 13:07:06;;;;;;;33.45;20.52;;;18.20;16.70;;;;;;10340865;28;20238;-82
2022/03/14 13:12:35;;;;;;;34.10;21.05;;;18.00;17.40;;;;;;10299044;28;20212;-83
2022/03/14 13:17:57;;;;;;;32.72;18.77;;;17.50;17.90;;;;;;10296751;28;20496;-81
2022/03/14 13:23:20;;;;;;;27.05;19.10;;;17.60;17.90;;;;;;10309646;28;20219;-83
2022/03/14 13:28:42;;;;;;;31.42;20.17;;;17.10;18.10;;;;;;10301843;28;20243;-86
2022/03/14 13:34:07;;;;;;;32.55;19.08;;;17.10;18.40;;;;;;10359504;28;20208;-84
2022/03/14 13:39:29;;;;;;;31.90;19.60;;;16.90;18.70;;;;;;10314207;28;20493;-84
2022/03/14 13:44:52;;;;;;;27.90;19.40;;;16.80;18.30;;;;;;10349092;28;20240;-79
2022/03/14 13:50:14;;;;;;;38.83;20.42;;;16.90;18.50;;;;;;10350944;28;20214;-81
2022/03/14 13:55:37;;;;;;;36.72;20.67;;;16.10;19.50;;;;;;10349984;28;20376;-79
2022/03/14 14:01:01;;;;;;;33.65;19.88;;;15.00;20.70;;;;;;10349734;28;20196;-81
2022/03/14 14:06:25;;;;;;;34.67;20.88;;;15.00;20.60;;;;;;10337946;28;20232;-84
2022/03/14 14:12:02;;;;;;;37.33;22.55;;;14.40;20.70;;;;;;10310933;28;20208;-80
2022/03/14 14:17:36;;;;;;;39.70;23.60;;;14.30;21.60;;;;;;10317869;28;20422;-83
2022/03/14 14:22:59;;;;;;;31.85;20.85;;;13.90;22.10;;;;;;10336006;28;20201;-82
2022/03/14 14:28:22;;;;;;;35.17;19.60;;;13.70;22.70;;;;;;10359431;28;20195;-85
2022/03/14 14:33:44;;;;;;;36.63;19.35;;;13.10;22.90;;;;;;10391063;28;20209;-84
2022/03/14 14:39:06;;;;;;;35.95;20.30;;;12.60;23.70;;;;;;10351604;28;20195;-88
2022/03/14 14:44:29;;;;;;;32.78;18.65;;;12.30;24.10;;;;;;10335995;28;20242;-79
2022/03/14 14:49:53;;;;;;;34.23;19.80;;;12.30;24.50;;;;;;10343439;28;20206;-78
2022/03/14 14:55:15;;;;;;;33.25;20.67;;;12.00;25.10;;;;;;10334486;28;20195;-85
2022/03/14 15:00:38;;;;;;;32.93;19.27;;;11.80;25.50;;;;;;10328527;28;20199;-80
2022/03/14 15:06:00;;;;;;;31.35;17.63;;;11.60;25.60;;;;;;10317188;28;20233;-81
2022/03/14 15:11:22;;;;;;;27.53;18.30;;;11.80;25.80;;;;;;10335774;28;20213;-79
2022/03/14 15:16:45;;;;;;;34.50;18.67;;;12.20;25.10;;;;;;10333627;28;20249;-87
2022/03/14 15:22:07;;;;;;;35.50;19.48;;;12.10;25.40;;;;;;10330382;28;20435;-84
2022/03/14 15:27:31;;;;;;;30.97;18.03;;;11.90;25.70;;;;;;10327840;28;20225;-86
2022/03/14 15:32:54;;;;;;;29.97;17.77;;;11.50;25.90;;;;;;10336092;28;20278;-83
2022/03/14 15:38:18;;;;;;;30.50;17.88;;;11.30;26.40;;;;;;10326806;28;20203;-82
2022/03/14 15:43:40;;;;;;;33.70;18.13;;;11.20;26.90;;;;;;10331961;28;20260;-80
2022/03/14 15:49:05;;;;;;;36.13;17.53;;;11.00;27.60;;;;;;10329310;28;20237;-81
2022/03/14 15:54:28;;;;;;;29.57;18.23;;;10.80;28.10;;;;;;10325144;28;20419;-82
2022/03/14 15:59:53;;;;;;;33.20;18.13;;;10.70;28.70;;;;;;10327846;28;20431;-82
2022/03/14 16:05:26;;;;;;;30.87;19.03;;;10.50;29.10;;;;;;10343640;28;20399;-79
2022/03/14 16:10:49;;;;;;;32.47;19.40;;;10.40;29.60;;;;;;10343870;28;20200;-83
2022/03/14 16:16:14;;;;;;;37.10;21.50;;;10.30;30.20;;;;;;10342905;28;20205;-83
2022/03/14 16:21:37;;;;;;;42.10;20.60;;;10.10;31.00;;;;;;10343413;28;20234;-82
2022/03/14 16:26:59;;;;;;;44.90;24.10;;;10.10;31.70;;;;;;10341740;28;20248;-83
2022/03/14 16:32:22;;;;;;;40.70;21.33;;;9.80;32.60;;;;;;10341802;28;20272;-82
2022/03/14 16:37:46;;;;;;;40.40;19.77;;;9.70;33.70;;;;;;10327617;28;20373;-82
2022/03/14 16:43:09;;;;;;;29.67;17.60;;;9.50;35.50;;;;;;10345439;28;20238;-82
2022/03/14 16:48:31;;;;;;;34.27;19.03;;;9.30;37.80;;;;;;10340217;28;20224;-84
2022/03/14 16:53:54;;;;;;;34.77;20.27;;;9.10;40.10;;;;;;10342558;28;20211;-84
2022/03/14 16:59:16;;;;;;;31.07;18.73;;;9.00;42.20;;;;;;10356783;28;20214;-84
2022/03/14 17:04:39;;;;;;;36.23;18.47;;;9.00;42.90;;;;;;10355070;28;20428;-84
2022/03/14 17:10:03;;;;;;;33.10;19.53;;;8.90;42.40;;;;;;10356028;28;20227;-84
2022/03/14 17:15:27;;;;;;;38.50;21.70;;;8.70;43.10;;;;;;10343046;28;20200;-84
2022/03/14 17:20:50;;;;;;;29.33;18.17;;;8.60;44.30;;;;;;10342302;28;20204;-85
2022/03/14 17:26:12;;;;;;;32.60;18.60;;;8.50;45.10;;;;;;10342039;28;20235;-84
2022/03/14 17:31:34;;;;;;;33.23;19.13;;;8.40;46.80;;;;;;10341904;28;20198;-84
2022/03/14 17:36:58;;;;;;;35.83;19.53;;;8.30;47.40;;;;;;10319178;28;20201;-84
2022/03/14 17:42:21;;;;;;;36.03;19.63;;;8.20;48.60;;;;;;10315319;28;20288;-84
2022/03/14 17:47:43;;;;;;;35.43;20.03;;;8.10;49.70;;;;;;10315119;28;20579;-84
2022/03/14 17:53:05;;;;;;;43.93;23.20;;;8.00;50.60;;;;;;10301928;28;20276;-84
2022/03/14 17:58:27;;;;;;;33.93;21.17;;;7.90;51.90;;;;;;10314835;28;20450;-84
2022/03/14 18:03:49;;;;;;;38.20;21.93;;;7.80;52.60;;;;;;10290692;28;20215;-84
2022/03/14 18:09:11;;;;;;;33.63;20.60;;;7.70;54.40;;;;;;10354905;28;20509;-84
2022/03/14 18:14:34;;;;;;;42.10;21.60;;;7.50;57.20;;;;;;10340614;28;20209;-82
2022/03/14 18:19:56;;;;;;;38.83;22.37;;;7.40;58.70;;;;;;10341263;28;20205;-83
2022/03/14 18:25:20;;;;;;;42.10;22.93;;;7.30;59.80;;;;;;10340863;28;20554;-83
2022/03/14 18:30:42;;;;;;;40.73;24.80;;;7.30;61.30;;;;;;10340318;28;20249;-84
2022/03/14 18:36:06;;;;;;;40.63;24.43;;;7.20;62.20;;;;;;10340387;28;20355;-84
2022/03/14 18:41:30;;;;;;;44.03;24.53;;;7.20;63.80;;;;;;10303938;28;20242;-84
2022/03/14 18:46:52;;;;;;;39.03;23.53;;;7.10;66.50;;;;;;10308179;28;20228;-84
2022/03/14 18:52:15;;;;;;;37.80;22.90;;;7.00;68.50;;;;;;10321380;28;20200;-83
2022/03/14 18:57:38;;;;;;;40.17;23.50;;;7.10;69.40;;;;;;10308031;28;20199;-84
2022/03/14 19:03:01;;;;;;;50.63;25.13;;;6.90;71.50;;;;;;10321329;28;20416;-83
2022/03/14 19:08:25;;;;;;;44.43;24.10;;;6.90;74.30;;;;;;10359775;28;20229;-84
2022/03/14 19:13:47;;;;;;;41.57;22.83;;;6.80;75.40;;;;;;10361234;28;20409;-84
2022/03/14 19:19:09;;;;;;;43.57;25.97;;;6.70;78.70;;;;;;10333493;28;20264;-84
2022/03/14 19:24:32;;;;;;;57.77;28.63;;;6.60;80.50;;;;;;10346669;28;20221;-83
2022/03/14 19:29:54;;;;;;;79.70;38.83;;;6.60;83.10;;;;;;10346737;28;20220;-84
2022/03/14 19:35:30;;;;;;;87.13;43.87;;;6.40;85.30;;;;;;10346222;28;20204;-83
2022/03/14 19:40:54;;;;;;;80.83;37.23;;;6.30;87.60;;;;;;10348826;28;20430;-83
2022/03/14 19:46:17;;;;;;;71.23;37.70;;;6.30;88.80;;;;;;10346450;28;20228;-83
2022/03/14 19:51:39;;;;;;;71.83;38.23;;;6.20;89.40;;;;;;10345678;28;20200;-83
2022/03/14 19:57:02;;;;;;;57.97;31.10;;;6.20;90.50;;;;;;10345734;28;20598;-84
2022/03/14 20:02:27;;;;;;;45.93;28.17;;;6.10;91.50;;;;;;10345684;28;20201;-83
2022/03/14 20:07:49;;;;;;;52.77;28.33;;;6.10;92.30;;;;;;10344125;28;20446;-83
2022/03/14 20:13:14;;;;;;;45.40;27.23;;;6.00;92.60;;;;;;10345424;28;20198;-83
2022/03/14 20:18:37;;;;;;;47.23;28.33;;;6.00;93.30;;;;;;10359116;28;20195;-84
2022/03/14 20:23:58;;;;;;;48.23;28.83;;;5.90;93.90;;;;;;10344534;28;20204;-83
2022/03/14 20:29:20;;;;;;;46.07;26.27;;;5.90;94.20;;;;;;10344646;28;20204;-83
2022/03/14 20:34:43;;;;;;;47.60;25.93;;;5.80;94.90;;;;;;10344081;28;20205;-83
2022/03/14 20:40:05;;;;;;;53.63;29.23;;;5.80;95.40;;;;;;10303881;28;20241;-83
2022/03/14 20:45:28;;;;;;;75.40;40.27;;;5.80;96.00;;;;;;10303876;28;20227;-83
2022/03/14 20:50:50;;;;;;;87.80;44.50;;;5.70;96.20;;;;;;10316865;28;20270;-84
2022/03/14 20:56:12;;;;;;;80.63;42.97;;;5.70;96.30;;;;;;10330942;28;20201;-83
2022/03/14 21:01:35;;;;;;;79.47;43.27;;;5.50;97.40;;;;;;10316691;28;20387;-84
2022/03/14 21:06:57;;;;;;;84.50;44.73;;;5.30;98.00;;;;;;10329124;28;20539;-83
2022/03/14 21:12:20;;;;;;;96.37;48.87;;;5.40;98.20;;;;;;10343152;28;20205;-83
2022/03/14 21:17:44;;;;;;;91.53;49.70;;;5.30;98.00;;;;;;10342562;28;20283;-83
2022/03/14 21:23:06;;;;;;;98.27;48.60;;;5.30;98.70;;;;;;10342567;28;20370;-83
2022/03/14 21:28:30;;;;;;;97.57;48.17;;;5.40;98.50;;;;;;10355827;28;20417;-84
2022/03/14 21:33:56;;;;;;;114.00;52.03;;;5.40;98.40;;;;;;10341911;28;20199;-83
2022/03/14 21:39:20;;;;;;;128.00;53.70;;;5.30;98.50;;;;;;10305436;28;20210;-83
2022/03/14 21:44:42;;;;;;;107.83;51.40;;;5.20;98.60;;;;;;10315332;28;20272;-83
2022/03/14 21:50:05;;;;;;;94.80;47.57;;;5.10;99.40;;;;;;10301443;28;20203;-83
2022/03/14 21:55:29;;;;;;;89.37;45.80;;;5.00;99.80;;;;;;10301060;28;20431;-84
2022/03/14 22:00:51;;;;;;;70.00;40.20;;;4.90;99.90;;;;;;10314751;28;20493;-83
2022/03/14 22:06:14;;;;;;;74.47;39.73;;;4.80;99.90;;;;;;10322057;28;20232;-83
2022/03/14 22:11:38;;;;;;;64.57;36.37;;;4.80;99.90;;;;;;10301012;28;20200;-83
2022/03/14 22:17:01;;;;;;;67.53;36.30;;;4.70;99.90;;;;;;10299532;28;20203;-83
2022/03/14 22:22:29;;;;;;;59.40;36.53;;;4.70;99.90;;;;;;10316834;28;20201;-84
2022/03/14 22:27:51;;;;;;;63.47;37.40;;;4.70;99.90;;;;;;10300066;28;20429;-83
2022/03/14 22:33:15;;;;;;;75.23;41.83;;;4.70;99.90;;;;;;10327302;28;20246;-83
2022/03/14 22:38:38;;;;;;;83.47;43.43;;;4.50;99.90;;;;;;10313739;28;20232;-84
2022/03/14 22:44:03;;;;;;;75.93;44.47;;;4.40;99.90;;;;;;10313433;28;20256;-83
2022/03/14 22:49:25;;;;;;;96.80;49.13;;;4.30;99.90;;;;;;10314490;28;20243;-83
2022/03/14 22:54:47;;;;;;;106.87;52.03;;;4.30;99.90;;;;;;10299939;28;20204;-84
2022/03/14 23:00:33;;;;;;;77.33;42.23;;;4.30;99.90;;;;;;10313280;28;20199;-84
2022/03/14 23:05:59;;;;;;;62.70;36.40;;;4.30;99.90;;;;;;10331324;28;20237;-84
2022/03/14 23:11:30;;;;;;;60.00;33.90;;;4.30;99.90;;;;;;10340282;28;20231;-84
2022/03/14 23:16:52;;;;;;;58.60;33.83;;;4.30;99.90;;;;;;10291741;28;20203;-83
2022/03/14 23:22:15;;;;;;;56.73;32.30;;;4.30;99.90;;;;;;10299787;28;20231;-83
2022/03/14 23:27:38;;;;;;;58.27;31.93;;;4.20;99.90;;;;;;10316670;28;20281;-84
2022/03/14 23:33:00;;;;;;;81.10;38.97;;;4.20;99.90;;;;;;10319930;28;20495;-83
2022/03/14 23:38:25;;;;;;;80.17;39.03;;;4.10;99.90;;;;;;10330412;28;20199;-84
2022/03/14 23:43:48;;;;;;;70.80;37.63;;;4.10;99.90;;;;;;10319844;28;20256;-85
2022/03/14 23:49:10;;;;;;;80.87;39.97;;;4.10;99.90;;;;;;10306836;28;20229;-84
2022/03/14 23:54:33;;;;;;;67.80;35.23;;;4.00;99.90;;;;;;10346422;28;20213;-85
2022/03/14 23:59:55;;;;;;;66.10;38.17;;;3.90;99.90;;;;;;10345796;28;20251;-84
